createdAt,value
2024-04-23T00:00:52.604Z,102058.88
2024-04-23T00:03:24.730Z,102047.53
2024-04-23T00:05:56.853Z,102055.16
2024-04-23T00:08:28.990Z,102051.31
2024-04-23T00:11:01.185Z,102052.72
2024-04-23T00:13:33.298Z,102049.78
2024-04-23T00:16:05.936Z,102049.66
2024-04-23T00:18:38.085Z,102050.47
2024-04-23T00:21:10.264Z,102057.41
2024-04-23T00:23:42.953Z,102061.53
2024-04-23T00:26:15.084Z,102051.06
2024-04-23T00:28:47.201Z,102050.84
2024-04-23T00:31:19.763Z,102043.59
2024-04-23T00:33:51.829Z,102041.56
2024-04-23T00:36:23.889Z,102020.47
2024-04-23T00:38:55.958Z,102048.19
2024-04-23T00:41:28.071Z,102041.94
2024-04-23T00:44:00.512Z,102039.03
2024-04-23T00:46:33.014Z,102013.13
2024-04-23T00:49:07.885Z,102002.06
2024-04-23T00:51:41.813Z,102030.28
2024-04-23T00:54:16.014Z,102025.69
2024-04-23T00:56:48.802Z,102031.84
2024-04-23T00:59:21.697Z,102022.59
2024-04-23T01:01:56.980Z,102033.31
2024-04-23T01:04:29.377Z,102032.66
2024-04-23T01:07:01.949Z,102000.75
2024-04-23T01:09:34.156Z,102035.63
2024-04-23T01:12:06.732Z,102028.47
2024-04-23T01:14:42.556Z,101984.91
2024-04-23T01:17:16.589Z,102022.97
2024-04-23T01:20:02.734Z,102032.34
2024-04-23T01:23:15.762Z,102027.72
2024-04-23T01:25:51.126Z,102022.41
2024-04-23T01:28:24.207Z,101995.69
2024-04-23T01:30:56.366Z,102026.28
2024-04-23T01:33:30.182Z,102019.03
2024-04-23T01:36:08.359Z,102018.13
2024-04-23T01:38:42.530Z,102019.03
2024-04-23T01:41:15.483Z,102027.66
2024-04-23T01:43:48.469Z,102023.25
2024-04-23T01:46:22.089Z,102022.00
2024-04-23T01:48:54.714Z,102004.53
2024-04-23T01:51:27.005Z,102003.31
2024-04-23T01:53:59.242Z,102001.50
2024-04-23T01:56:31.357Z,101993.25
2024-04-23T01:59:04.414Z,101991.19
2024-04-23T02:01:43.221Z,101985.56
2024-04-23T02:04:18.346Z,101993.25
2024-04-23T02:06:51.944Z,101986.34
2024-04-23T02:09:25.234Z,101985.44
2024-04-23T02:11:57.586Z,101950.09
2024-04-23T02:14:29.640Z,101984.22
2024-04-23T02:17:01.842Z,101983.31
2024-04-23T02:19:34.070Z,101975.34
2024-04-23T02:22:06.201Z,101974.91
2024-04-23T02:24:39.749Z,101974.00
2024-04-23T02:27:11.858Z,101971.97
2024-04-23T02:29:43.935Z,101932.13
2024-04-23T02:32:16.056Z,101953.84
2024-04-23T02:34:48.296Z,101961.81
2024-04-23T02:37:20.450Z,101961.38
2024-04-23T02:39:52.617Z,101966.69
2024-04-23T02:42:24.693Z,101962.03
2024-04-23T02:44:56.788Z,101963.63
2024-04-23T02:47:28.946Z,101962.84
2024-04-23T02:50:01.248Z,101963.63
2024-04-23T02:52:35.213Z,101959.13
2024-04-23T02:55:08.621Z,101963.41
2024-04-23T02:57:43.283Z,101970.66
2024-04-23T03:00:15.875Z,101958.41
2024-04-23T03:02:48.001Z,101936.44
2024-04-23T03:05:20.228Z,101962.16
2024-04-23T03:07:52.361Z,101966.69
2024-04-23T03:10:24.481Z,101957.94
2024-04-23T03:12:56.788Z,101963.50
2024-04-23T03:15:28.832Z,101956.47
2024-04-23T03:18:00.977Z,101964.53
2024-04-23T03:20:33.093Z,101962.25
2024-04-23T03:23:05.484Z,101964.75
2024-04-23T03:25:39.441Z,101962.38
2024-04-23T03:28:12.743Z,101964.97
2024-04-23T03:30:44.835Z,101955.31
2024-04-23T03:33:17.027Z,101946.50
2024-04-23T03:35:49.162Z,101956.13
2024-04-23T03:38:21.242Z,101961.31
2024-04-23T03:40:53.376Z,101961.25
2024-04-23T03:43:25.465Z,101941.66
2024-04-23T03:45:57.602Z,101963.16
2024-04-23T03:48:29.667Z,101950.59
2024-04-23T03:51:01.869Z,101966.75
2024-04-23T03:53:33.964Z,101971.97
2024-04-23T03:56:06.532Z,101968.50
2024-04-23T03:58:38.671Z,101925.22
2024-04-23T04:01:10.856Z,101956.34
2024-04-23T04:04:01.677Z,101925.53
2024-04-23T04:06:33.745Z,101951.81
2024-04-23T04:09:05.845Z,101953.50
2024-04-23T04:11:39.402Z,101951.13
2024-04-23T04:14:11.645Z,101951.13
2024-04-23T04:16:43.940Z,101950.91
2024-04-23T04:19:16.153Z,101952.50
2024-04-23T04:21:51.382Z,101952.50
2024-04-23T04:24:23.501Z,101956.47
2024-04-23T04:26:55.593Z,101915.03
2024-04-23T04:29:27.880Z,101952.06
2024-04-23T04:32:00.543Z,101950.03
2024-04-23T04:34:32.687Z,101951.59
2024-04-23T04:37:04.856Z,101948.00
2024-04-23T04:39:39.853Z,101915.16
2024-04-23T04:42:11.930Z,101947.78
2024-04-23T04:44:44.035Z,101947.78
2024-04-23T04:47:16.255Z,101945.94
2024-04-23T04:49:48.460Z,101950.84
2024-04-23T04:52:20.559Z,101916.06
2024-04-23T04:54:52.712Z,101945.75
2024-04-23T04:57:24.918Z,101947.56
2024-04-23T04:59:57.055Z,101943.03
2024-04-23T05:02:29.252Z,101947.34
2024-04-23T05:05:01.392Z,101954.13
2024-04-23T05:07:33.552Z,101944.25
2024-04-23T05:10:06.766Z,101953.91
2024-04-23T05:12:39.213Z,101959.91
2024-04-23T05:15:11.324Z,101928.53
2024-04-23T05:17:43.544Z,101965.22
2024-04-23T05:20:15.688Z,101959.34
2024-04-23T05:22:47.907Z,101958.69
2024-04-23T05:25:20.230Z,101955.03
2024-04-23T05:27:52.303Z,101953.13
2024-04-23T05:30:43.351Z,101957.53
2024-04-23T05:33:15.564Z,101957.75
2024-04-23T05:35:47.863Z,101954.34
2024-04-23T05:38:20.035Z,101952.78
2024-04-23T05:40:52.707Z,101956.59
2024-04-23T05:43:24.826Z,101957.06
2024-04-23T05:45:56.898Z,101962.50
2024-04-23T05:49:25.903Z,101957.28
2024-04-23T05:52:54.344Z,101960.31
2024-04-23T05:55:40.582Z,101957.22
2024-04-23T05:58:13.365Z,101953.91
2024-04-23T06:00:45.524Z,101947.41
2024-04-23T06:03:17.629Z,101923.00
2024-04-23T06:05:49.769Z,101953.63
2024-04-23T06:08:23.467Z,101959.06
2024-04-23T06:10:55.668Z,101957.06
2024-04-23T06:13:27.862Z,101960.53
2024-04-23T06:16:00.279Z,101957.91
2024-04-23T06:18:32.407Z,101957.03
2024-04-23T06:21:04.835Z,101963.88
2024-04-23T06:23:36.930Z,101968.31
2024-04-23T06:26:09.140Z,101959.06
2024-04-23T06:28:41.282Z,101966.50
2024-04-23T06:31:13.728Z,101976.78
2024-04-23T06:33:45.894Z,101939.56
2024-04-23T06:36:18.056Z,101966.06
2024-04-23T06:38:50.171Z,101956.59
2024-04-23T06:41:22.418Z,101953.38
2024-04-23T06:43:54.603Z,101951.94
2024-04-23T06:46:26.733Z,101955.22
2024-04-23T06:48:59.029Z,101944.63
2024-04-23T06:51:31.143Z,101918.97
2024-04-23T06:54:03.231Z,101936.19
2024-04-23T06:56:35.409Z,101945.41
2024-04-23T06:59:08.367Z,101945.31
2024-04-23T07:01:40.651Z,101940.72
2024-04-23T07:04:12.990Z,101941.34
2024-04-23T07:06:45.442Z,101940.72
2024-04-23T07:09:18.367Z,101939.72
2024-04-23T07:11:50.529Z,101931.72
2024-04-23T07:14:22.795Z,101944.94
2024-04-23T07:16:55.058Z,101944.06
2024-04-23T07:19:27.294Z,101945.50
2024-04-23T07:22:01.456Z,101942.81
2024-04-23T07:24:33.595Z,101955.09
2024-04-23T07:27:05.745Z,101819.31
2024-04-23T07:29:37.844Z,101934.41
2024-04-23T07:32:14.348Z,101920.06
2024-04-23T07:34:46.799Z,101934.47
2024-04-23T07:37:18.972Z,101932.16
2024-04-23T07:39:51.040Z,101935.03
2024-04-23T07:42:23.147Z,101900.22
2024-04-23T07:44:55.253Z,101920.09
2024-04-23T07:47:27.404Z,101894.38
2024-04-23T07:50:00.257Z,101921.44
2024-04-23T07:52:32.533Z,101912.53
2024-04-23T07:55:04.978Z,101909.69
2024-04-23T07:57:37.120Z,101915.56
2024-04-23T08:00:10.291Z,101925.03
2024-04-23T08:02:45.432Z,101908.59
2024-04-23T08:05:17.552Z,101915.28
2024-04-23T08:07:49.879Z,101882.41
2024-04-23T08:10:22.007Z,101912.75
2024-04-23T08:12:55.418Z,101909.84
2024-04-23T08:15:27.658Z,101902.56
2024-04-23T08:18:00.386Z,101905.47
2024-04-23T08:20:32.704Z,101872.44
2024-04-23T08:23:05.001Z,101893.97
2024-04-23T08:25:37.332Z,101902.38
2024-04-23T08:28:09.487Z,101894.13
2024-04-23T08:30:41.625Z,101885.78
2024-04-23T08:33:13.759Z,101891.63
2024-04-23T08:35:46.567Z,101889.47
2024-04-23T08:38:18.718Z,101894.50
2024-04-23T08:40:53.045Z,101897.34
2024-04-23T08:43:34.541Z,101896.31
2024-04-23T08:46:08.604Z,101883.88
2024-04-23T08:48:42.592Z,101887.22
2024-04-23T08:51:14.890Z,101880.53
2024-04-23T08:53:50.403Z,101879.13
2024-04-23T08:56:24.301Z,101876.38
2024-04-23T08:58:57.239Z,101871.97
2024-04-23T09:01:36.319Z,101874.09
2024-04-23T09:04:09.360Z,101870.34
2024-04-23T09:06:42.964Z,101869.94
2024-04-23T09:09:17.059Z,101832.63
2024-04-23T09:11:53.632Z,101864.97
2024-04-23T09:14:25.761Z,101867.06
2024-04-23T09:16:58.860Z,101860.28
2024-04-23T09:19:32.268Z,101859.16
2024-04-23T09:22:08.995Z,101848.38
2024-04-23T09:24:41.787Z,101855.13
2024-04-23T09:27:13.927Z,101852.91
2024-04-23T09:29:47.003Z,101844.69
2024-04-23T09:32:19.652Z,101844.81
2024-04-23T09:34:56.230Z,101840.34
2024-04-23T09:37:28.450Z,101834.78
2024-04-23T09:40:04.733Z,101828.88
2024-04-23T09:42:37.011Z,101798.78
2024-04-23T09:45:10.235Z,101815.31
2024-04-23T09:47:44.480Z,101825.91
2024-04-23T09:50:18.314Z,101793.59
2024-04-23T09:52:50.567Z,101820.13
2024-04-23T09:55:22.757Z,101819.03
2024-04-23T09:57:54.817Z,101786.22
2024-04-23T10:00:31.347Z,101815.44
2024-04-23T10:03:15.707Z,101811.94
2024-04-23T10:05:50.691Z,101813.94
2024-04-23T10:09:07.104Z,101812.28
2024-04-23T10:12:00.029Z,101804.81
2024-04-23T10:14:43.169Z,101799.19
2024-04-23T10:17:41.399Z,101789.53
2024-04-23T10:20:21.731Z,101764.97
2024-04-23T10:22:54.697Z,101779.44
2024-04-23T10:25:27.847Z,101770.03
2024-04-23T10:28:00.390Z,101748.59
2024-04-23T10:30:33.060Z,101772.28
2024-04-23T10:33:09.229Z,101767.03
2024-04-23T10:35:41.949Z,101762.44
2024-04-23T10:38:17.712Z,101740.81
2024-04-23T10:40:58.300Z,101724.59
2024-04-23T10:43:37.284Z,101757.56
2024-04-23T10:46:09.998Z,101749.31
2024-04-23T10:48:43.739Z,101743.00
2024-04-23T10:51:15.914Z,101742.06
2024-04-23T10:53:48.338Z,101743.88
2024-04-23T10:56:27.604Z,101738.13
2024-04-23T10:59:15.297Z,101705.59
2024-04-23T11:01:58.940Z,101724.97
2024-04-23T11:04:47.430Z,101699.91
2024-04-23T11:07:29.004Z,101724.06
2024-04-23T11:10:02.148Z,101729.06
2024-04-23T11:12:37.860Z,101729.16
2024-04-23T11:15:19.662Z,101722.84
2024-04-23T11:17:51.955Z,101728.28
2024-04-23T11:20:24.243Z,101726.25
2024-04-23T11:23:00.759Z,101687.13
2024-04-23T11:25:35.616Z,101710.44
2024-04-23T11:28:10.332Z,101704.16
2024-04-23T11:30:43.528Z,101699.72
2024-04-23T11:33:18.770Z,101707.28
2024-04-23T11:35:53.321Z,101696.31
2024-04-23T11:38:25.620Z,101695.38
2024-04-23T11:41:12.622Z,101685.75
2024-04-23T11:43:46.311Z,101689.81
2024-04-23T11:46:19.068Z,101686.16
2024-04-23T11:48:52.072Z,101683.41
2024-04-23T11:51:24.256Z,101658.53
2024-04-23T11:53:57.389Z,101678.22
2024-04-23T11:56:30.068Z,101676.81
2024-04-23T11:59:03.350Z,101643.53
2024-04-23T12:01:37.247Z,101652.81
2024-04-23T12:04:12.719Z,101678.44
2024-04-23T12:06:48.947Z,101674.56
2024-04-23T12:09:23.458Z,101679.47
2024-04-23T12:11:55.641Z,101674.34
2024-04-23T12:14:29.525Z,101663.03
2024-04-23T12:17:02.932Z,101665.22
2024-04-23T12:19:38.099Z,101655.66
2024-04-23T12:22:18.154Z,101657.28
2024-04-23T12:24:51.138Z,101669.66
2024-04-23T12:27:23.738Z,101665.84
2024-04-23T12:30:10.714Z,101633.56
2024-04-23T12:32:44.272Z,101649.50
2024-04-23T12:35:21.431Z,101622.31
2024-04-23T12:38:00.502Z,101644.63
2024-04-23T12:40:33.718Z,101640.09
2024-04-23T12:43:12.800Z,101631.81
2024-04-23T12:45:45.262Z,101630.84
2024-04-23T12:48:18.294Z,101639.25
2024-04-23T12:50:50.602Z,101633.88
2024-04-23T12:53:23.106Z,101645.16
2024-04-23T12:55:55.748Z,101610.53
2024-04-23T12:58:34.378Z,101626.78
2024-04-23T13:01:08.653Z,101626.06
2024-04-23T13:03:40.840Z,101620.50
2024-04-23T13:06:13.316Z,101619.19
2024-04-23T13:08:46.125Z,101607.22
2024-04-23T13:11:18.357Z,101611.25
2024-04-23T13:13:50.605Z,101618.13
2024-04-23T13:16:30.821Z,101599.03
2024-04-23T13:19:11.286Z,101599.66
2024-04-23T13:21:43.470Z,101595.75
2024-04-23T13:24:15.574Z,101590.41
2024-04-23T13:26:47.657Z,101551.03
2024-04-23T13:29:19.797Z,101580.25
2024-04-23T13:31:51.932Z,101574.09
2024-04-23T13:34:24.548Z,101537.22
2024-04-23T13:36:56.670Z,101537.47
2024-04-23T13:39:28.759Z,101563.16
2024-04-23T13:42:00.838Z,101555.75
2024-04-23T13:44:34.133Z,101545.91
2024-04-23T13:47:08.217Z,101551.63
2024-04-23T13:49:40.440Z,101551.38
2024-04-23T13:52:12.560Z,101544.09
2024-04-23T13:54:44.718Z,101543.03
2024-04-23T13:57:16.927Z,101508.50
2024-04-23T13:59:49.384Z,101536.16
2024-04-23T14:02:21.958Z,101533.56
2024-04-23T14:04:56.799Z,101527.97
2024-04-23T14:07:29.252Z,101526.56
2024-04-23T14:10:01.446Z,101526.44
2024-04-23T14:12:38.086Z,101519.44
2024-04-23T14:15:10.299Z,101522.53
2024-04-23T14:17:45.785Z,101514.44
2024-04-23T14:20:18.436Z,101513.84
2024-04-23T14:22:50.570Z,101517.97
2024-04-23T14:25:22.764Z,101500.69
2024-04-23T14:27:54.839Z,101502.00
2024-04-23T14:30:26.983Z,101497.34
2024-04-23T14:32:59.553Z,101498.47
2024-04-23T14:35:31.752Z,101497.31
2024-04-23T14:38:04.119Z,101389.53
2024-04-23T14:40:36.364Z,101501.22
2024-04-23T14:43:08.462Z,101492.19
2024-04-23T14:45:40.568Z,101478.97
2024-04-23T14:48:12.770Z,101481.19
2024-04-23T14:50:44.879Z,101482.50
2024-04-23T14:53:21.395Z,101467.69
2024-04-23T14:56:02.133Z,101474.88
2024-04-23T14:58:35.975Z,101443.69
2024-04-23T15:01:14.449Z,101465.53
2024-04-23T15:03:47.033Z,101467.94
2024-04-23T15:06:19.257Z,101457.84
2024-04-23T15:08:51.437Z,101459.38
2024-04-23T15:11:23.594Z,101453.81
2024-04-23T15:13:56.537Z,101436.31
2024-04-23T15:16:28.690Z,101447.28
2024-04-23T15:19:02.034Z,101446.16
2024-04-23T15:21:34.236Z,101441.44
2024-04-23T15:24:06.550Z,101435.94
2024-04-23T15:26:38.670Z,101432.38
2024-04-23T15:29:10.841Z,101419.22
2024-04-23T15:31:43.057Z,101433.97
2024-04-23T15:34:15.231Z,101415.47
2024-04-23T15:36:47.352Z,101431.22
2024-04-23T15:39:19.651Z,101406.44
2024-04-23T15:41:51.761Z,101426.41
2024-04-23T15:44:23.981Z,101421.28
2024-04-23T15:46:56.131Z,101418.13
2024-04-23T15:49:28.399Z,101397.97
2024-04-23T15:52:00.645Z,101421.19
2024-04-23T15:54:32.752Z,101418.50
2024-04-23T15:57:04.932Z,101419.44
2024-04-23T15:59:37.045Z,101411.44
2024-04-23T16:02:09.580Z,101415.50
2024-04-23T16:04:41.994Z,101404.63
2024-04-23T16:07:14.143Z,101373.63
2024-04-23T16:09:46.356Z,101406.22
2024-04-23T16:12:18.654Z,101398.53
2024-04-23T16:14:52.089Z,101396.72
2024-04-23T16:17:24.519Z,101396.41
2024-04-23T16:19:56.777Z,101391.56
2024-04-23T16:22:31.220Z,101383.56
2024-04-23T16:25:03.659Z,101372.16
2024-04-23T16:27:35.906Z,101359.97
2024-04-23T16:30:11.884Z,101343.84
2024-04-23T16:32:44.086Z,101377.38
2024-04-23T16:35:16.382Z,101375.28
2024-04-23T16:37:48.612Z,101370.53
2024-04-23T16:40:20.737Z,101369.34
2024-04-23T16:42:52.891Z,101353.81
2024-04-23T16:45:25.173Z,101368.97
2024-04-23T16:47:57.332Z,101368.97
2024-04-23T16:50:29.559Z,101341.19
2024-04-23T16:53:01.800Z,101361.81
2024-04-23T16:55:34.048Z,101362.66
2024-04-23T16:58:06.201Z,101361.81
2024-04-23T17:00:38.376Z,101367.59
2024-04-23T17:03:10.908Z,101360.13
2024-04-23T17:05:43.168Z,101358.25
2024-04-23T17:08:15.317Z,101364.34
2024-04-23T17:10:49.556Z,101363.44
2024-04-23T17:13:21.739Z,101358.81
2024-04-23T17:15:53.847Z,101356.13
2024-04-23T17:18:26.050Z,101361.31
2024-04-23T17:20:58.684Z,101352.97
2024-04-23T17:23:31.437Z,101337.09
2024-04-23T17:26:03.787Z,101360.72
2024-04-23T17:28:36.082Z,101347.00
2024-04-23T17:31:08.711Z,101358.47
2024-04-23T17:33:42.308Z,101353.16
2024-04-23T17:36:14.468Z,101357.47
2024-04-23T17:38:49.622Z,101297.19
2024-04-23T17:41:21.991Z,101348.75
2024-04-23T17:43:54.344Z,101352.94
2024-04-23T17:46:26.514Z,101352.94
2024-04-23T17:48:58.912Z,101357.38
2024-04-23T17:51:31.162Z,101359.50
2024-04-23T17:54:03.448Z,101358.84
2024-04-23T17:56:35.680Z,101362.75
2024-04-23T17:59:09.109Z,101354.75
2024-04-23T18:01:41.484Z,101359.19
2024-04-23T18:04:13.681Z,101353.44
2024-04-23T18:06:45.809Z,101314.22
2024-04-23T18:09:17.884Z,101341.59
2024-04-23T18:11:50.067Z,101315.25
2024-04-23T18:14:22.283Z,101343.38
2024-04-23T18:16:54.449Z,101311.00
2024-04-23T18:19:26.872Z,101336.63
2024-04-23T18:21:59.273Z,101334.91
2024-04-23T18:24:31.369Z,101343.59
2024-04-23T18:27:03.593Z,101341.06
2024-04-23T18:29:35.719Z,101339.09
2024-04-23T18:32:08.506Z,101309.31
2024-04-23T18:34:40.883Z,101341.44
2024-04-23T18:37:13.019Z,101343.75
2024-04-23T18:39:45.109Z,101346.16
2024-04-23T18:42:17.239Z,101336.81
2024-04-23T18:44:51.190Z,101333.91
2024-04-23T18:47:23.392Z,101331.56
2024-04-23T18:49:55.673Z,101331.13
2024-04-23T18:52:27.801Z,101320.53
2024-04-23T18:55:00.388Z,101316.06
2024-04-23T18:57:32.587Z,101320.25
2024-04-23T19:00:05.569Z,101288.00
2024-04-23T19:02:38.248Z,101314.00
2024-04-23T19:05:10.582Z,101320.94
2024-04-23T19:07:44.500Z,101321.53
2024-04-23T19:10:17.745Z,101293.19
2024-04-23T19:12:54.118Z,101322.03
2024-04-23T19:15:26.246Z,101311.59
2024-04-23T19:18:01.236Z,101309.53
2024-04-23T19:20:33.429Z,101308.47
2024-04-23T19:23:05.562Z,101301.41
2024-04-23T19:25:37.774Z,101260.63
2024-04-23T19:28:09.908Z,101292.81
2024-04-23T19:30:42.028Z,101296.03
2024-04-23T19:33:14.183Z,101283.81
2024-04-23T19:35:46.467Z,101259.34
2024-04-23T19:38:19.792Z,101289.66
2024-04-23T19:40:52.150Z,101288.00
2024-04-23T19:43:24.351Z,101287.78
2024-04-23T19:46:05.587Z,101282.53
2024-04-23T19:48:37.973Z,101290.50
2024-04-23T19:51:18.003Z,101290.44
2024-04-23T19:53:50.830Z,101280.47
2024-04-23T19:56:35.139Z,101271.00
2024-04-23T19:59:10.237Z,101288.94
2024-04-23T20:01:44.851Z,101286.25
2024-04-23T20:04:17.610Z,101277.22
2024-04-23T20:06:50.002Z,101279.00
2024-04-23T20:09:22.213Z,101278.97
2024-04-23T20:11:54.357Z,101264.84
2024-04-23T20:14:26.544Z,101269.22
2024-04-23T20:17:00.262Z,101265.44
2024-04-23T20:19:32.446Z,101260.88
2024-04-23T20:22:07.272Z,101270.50
2024-04-23T20:24:40.767Z,101258.31
2024-04-23T20:27:12.849Z,101269.44
2024-04-23T20:29:44.896Z,101225.25
2024-04-23T20:32:17.074Z,101265.88
2024-04-23T20:34:51.187Z,101261.31
2024-04-23T20:37:23.585Z,101267.38
2024-04-23T20:39:55.679Z,101254.38
2024-04-23T20:42:30.942Z,101270.00
2024-04-23T20:45:03.126Z,101269.72
2024-04-23T20:47:35.454Z,101262.53
2024-04-23T20:50:09.431Z,101265.13
2024-04-23T20:52:43.594Z,101258.28
2024-04-23T20:55:16.135Z,101267.25
2024-04-23T20:57:48.354Z,101269.31
2024-04-23T21:00:20.677Z,101264.19
2024-04-23T21:02:52.990Z,101255.84
2024-04-23T21:05:25.265Z,101260.56
2024-04-23T21:07:57.517Z,101252.91
2024-04-23T21:10:30.620Z,101263.56
2024-04-23T21:13:03.264Z,101257.50
2024-04-23T21:15:35.576Z,101258.69
2024-04-23T21:18:07.925Z,101259.84
2024-04-23T21:20:40.122Z,101257.19
2024-04-23T21:23:12.342Z,101254.47
2024-04-23T21:25:44.442Z,101254.34
2024-04-23T21:28:16.610Z,101261.41
2024-04-23T21:30:48.682Z,101225.91
2024-04-23T21:33:20.884Z,101261.75
2024-04-23T21:35:53.049Z,101253.09
2024-04-23T21:38:25.179Z,101264.66
2024-04-23T21:40:57.367Z,101260.28
2024-04-23T21:43:29.451Z,101262.81
2024-04-23T21:46:07.134Z,101260.72
2024-04-23T21:48:39.380Z,101255.13
2024-04-23T21:51:16.958Z,101253.50
2024-04-23T21:53:49.619Z,101246.97
2024-04-23T21:56:21.874Z,101245.69
2024-04-23T21:58:54.058Z,101225.75
2024-04-23T22:01:26.247Z,101244.19
2024-04-23T22:03:58.804Z,101220.44
2024-04-23T22:06:30.972Z,101249.97
2024-04-23T22:09:03.074Z,101243.88
2024-04-23T22:11:36.209Z,101244.00
2024-04-23T22:14:08.670Z,101237.91
2024-04-23T22:16:40.868Z,101238.75
2024-04-23T22:19:13.011Z,101240.56
2024-04-23T22:21:45.105Z,101237.81
2024-04-23T22:24:17.224Z,101242.38
2024-04-23T22:26:49.315Z,101238.63
2024-04-23T22:29:21.483Z,101210.44
2024-04-23T22:31:53.655Z,101237.84
2024-04-23T22:34:25.784Z,101235.09
2024-04-23T22:36:57.972Z,101236.94
2024-04-23T22:39:30.295Z,101227.06
2024-04-23T22:42:02.423Z,101228.72
2024-04-23T22:44:34.537Z,101228.72
2024-04-23T22:47:10.482Z,101223.47
2024-04-23T22:49:42.654Z,101216.41
2024-04-23T22:52:15.118Z,101208.06
2024-04-23T22:54:47.191Z,101211.81
2024-04-23T22:57:19.302Z,101212.72
2024-04-23T22:59:51.430Z,101212.63
2024-04-23T23:02:23.593Z,101213.53
2024-04-23T23:04:55.781Z,101175.16
2024-04-23T23:07:27.891Z,101206.50
2024-04-23T23:10:00.399Z,101202.78
2024-04-23T23:12:32.649Z,101195.94
2024-04-23T23:15:05.165Z,101194.28
2024-04-23T23:17:37.505Z,101189.78
2024-04-23T23:20:10.240Z,101190.69
2024-04-23T23:22:42.424Z,101180.97
2024-04-23T23:25:15.177Z,101180.25
2024-04-23T23:27:47.317Z,101180.81
2024-04-23T23:30:19.422Z,101183.28
2024-04-23T23:32:51.647Z,101182.22
2024-04-23T23:35:23.892Z,101175.16
2024-04-23T23:37:56.081Z,101178.47
2024-04-23T23:40:28.258Z,101177.53
2024-04-23T23:43:00.514Z,101169.53
2024-04-23T23:45:33.325Z,101176.41
2024-04-23T23:48:06.063Z,101175.44
2024-04-23T23:50:38.220Z,101132.47
2024-04-23T23:53:10.346Z,101167.19
2024-04-23T23:55:42.423Z,101163.66
2024-04-23T23:58:14.564Z,101164.47
